Stephenville, Canada
Current Conditions -  °F | °C
As of 4:00 PM on Friday 28 Nov 2014 (Local Time) from CYJT Reporting Station
Overcast Overcast  
Wind Chill: 18°   Ceiling: 2500
Heat Index: 28°   Visibility: 15mi
Dew Point: 21°   Wind: 13mph
Humidity: 74%   Direction: 90°E
Pressure: 29.88"   Gusts: NA
Location:  48.55°N, 58.58°W
Report Text: CYJT 281900Z 09011KT 15SM OVC025 M02/M06 A2988 RMK SC8 SLP120
Loading
Personal Weather Stations






























Interactive Weather Map New forecast layout! Learn more

10-Day Weather Forecast

Advertisements
Track Severe Weather on mobile